Timothy Courtois

Recruteur en chef - KV Oostende
10 Sept 2028
Dimanche
Processus

Personnalité

Adaptabilité (1) Ambition (1) Controverse (11) Loyauté (11) Pression (10) Professionnalisme (6) Sportivité (10) Tempérament (4)

Profil

Style d'entraînement Démocratique
Diplôme National B
Détermination 7
Gestion des joueurs 11
Motivation 12
Discipline 4
Satisfaction professionnelle
100%
Fatigue
0%
Rôle Recruteur en chef
Salaire 85.3K p/s
Contrat 14.03.2029

Performance

Comportement Bon
Efficacité de l'entraînement
36%
Développement des joueurs
40%
Prévention des blessures
40%
Mise en place tactique
45%

Événements récents

A participé à une réunion de recrutement maintenant
A recommandé une cible de transfert maintenant
A évalué un joueur 7j
A participé à une réunion de recrutement 7j
A recommandé une cible de transfert 7j
A recommandé une cible de transfert 7j
A recommandé une cible de transfert 7j
A présenté un dossier au conseil 7j

Suivi en cours

213
Joueur Club Statut Capacité Confiance Observé Dernière observation Dernier vote
Thijs Kraaijeveld USM Alger Actif 138 / 140 40% 5 28.08.2028 -
Sebastian Rodriguez Houston Dynamo Négociation 119 / 138 40% 1 28.08.2028 -
Mariano Penepil OH Leuven Actif 102 / 112 48% 1 14.08.2028 -
Rodrigo Muniz Fulham Actif 154 / 137 40% 1 13.06.2028 -
William Osula Wrexham Actif 135 / 137 40% 1 13.06.2028 -
Lucas Mbamba Westerlo Actif 77 / 104 48% 1 12.06.2028 -
Andrija Bulatović Chamois Niortais Actif 132 / 138 40% 5 07.06.2028 -
Tyler Fletcher Rotherham United Actif 113 / 118 40% 1 01.06.2028 -
Andrea Cogoni Cosenza Actif 113 / 112 40% 1 28.05.2028 -
Olivier Leroux Mouscron Actif 91 / 116 40% 7 27.05.2028 -
Amine Boukamir Charleroi Actif 109 / 114 40% 3 26.05.2028 -
Maël Monyebe Gazelle Garoua Actif 100 / 77 40% 1 26.05.2028 -
Aboubacar Meïté Afrique Foot Elite Actif 104 / 105 40% 5 23.05.2028 -
Trey Nyoni Rotherham United Actif 137 / 152 40% 4 22.05.2028 -
Kiani Inge Groningen Actif 102 / 126 40% 4 21.05.2028 -
Giovanni Leoni Lincoln City Actif 138 / 145 40% 3 21.05.2028 -
Kamaldeen Atiemo Wa All Stars Actif 107 / 121 40% 2 18.05.2028 -
Jorthy Mokio ADO Den Haag Actif 132 / 137 40% 4 17.05.2028 -
Daniel Banjaqui Benfica Actif 133 / 135 40% 3 17.05.2028 -
Josh Nichols Oldham Athletic Actif 110 / 131 40% 5 16.05.2028 -
Riquelme Thompson-Jones Accrington Stanley Actif 120 / 123 40% 3 14.05.2028 -
Ayden Heaven Portsmouth Actif 157 / 157 40% 5 13.05.2028 -
Christos Mouzakitis Hull City Actif 132 / 147 40% 5 08.05.2028 -
Mohammed El Âdfaoui Westerlo Actif 111 / 123 40% 1 05.05.2028 -
Jan Bürger Northampton Town Actif 116 / 126 40% 2 04.05.2028 -
Mats Egbring Heerenveen Actif 109 / 118 40% 2 04.05.2028 -
Martim Cunha Porto Actif 106 / 113 40% 6 01.05.2028 -
Jofre Torrents Ajax Actif 134 / 131 40% 2 29.04.2028 -
Konta Ismaily Actif 103 / 110 40% 1 28.04.2028 -
Lucas Høgsberg RC Strasbourg Actif 132 / 138 40% 7 23.04.2028 -
Bernardo Lima Porto Actif 103 / 120 40% 2 20.04.2028 -
Honest Ahanor Atalanta Actif 145 / 148 40% 2 14.04.2028 -
Pape Diong Westerlo Actif 106 / 121 40% 1 14.04.2028 -
Abubakar Adams Aduana Stars Actif 84 / 104 40% 1 09.04.2028 -
Tobiáš Pališčák Zlin Actif 117 / 95 40% 1 31.03.2028 -
Ousmane Simpara Etoiles du Mande Actif 89 / 93 40% 1 20.03.2028 -
Jason Witsel PSV Actif 136 / 121 40% 1 19.03.2028 -
David Blanc Le Havre AC Actif 107 / 111 40% 1 16.03.2028 -
Othniël Raterink Cagliari Actif 110 / 129 40% 1 13.03.2028 -
David Fernande PWD Bamenda Actif 62 / 70 40% 1 07.03.2028 -
Mao Hosoya Santos Actif 134 / 135 67% 1 01.01.2028 Approuver
Matěj Ryneš AS Nancy Actif 122 / 123 67% 1 01.01.2028 Approuver
Mamadou Diakhon Club Brugge Actif 134 / 132 48% 1 01.01.2028 -
Cristian Barrios Junior Actif 116 / 119 40% 3 31.12.2027 -
Antonio Galeano Remo Stars Actif 136 / 123 40% 4 20.12.2027 -
Rodrigo González Mitre Actif 128 / 112 40% 2 20.12.2027 -
Santiago Montiel Independiente Actif 125 / 124 40% 2 17.12.2027 -
Sebastián Navarro Atletico Nacional Actif 132 / 128 40% 1 17.12.2027 -
Brian Farioli Estudiantes Actif 117 / 117 40% 1 15.12.2027 -
Samuel Velásquez Atletico Nacional Actif 116 / 120 40% 1 15.12.2027 -
Camilo Martinez Cortulua Actif 131 / 119 40% 3 13.12.2027 -
Désiré Doué Stade Brestois Actif 168 / 170 40% 2 13.12.2027 -
Alex Luna Instituto Actif 129 / 138 40% 4 11.12.2027 -
Pedro de la Vega Columbus Crew Actif 158 / 125 40% 4 11.12.2027 -
Liel Abada Inter Miami CF Actif 148 / 132 40% 2 10.12.2027 -
David Da Costa Portland Timbers Actif 113 / 140 40% 2 09.12.2027 -
Sayfallah Ltaief O'Higgins Actif 128 / 129 40% 3 08.12.2027 -
Jáder Valencia Deportes Tolima Actif 115 / 117 40% 1 08.12.2027 -
Nhoa Sangui AS Nancy Actif 136 / 132 40% 3 07.12.2027 -
Hosea Michael Remo Stars Actif 74 / 82 40% 2 07.12.2027 -
Carlos Cantillo Jaguares Actif 104 / 118 40% 1 07.12.2027 -
Bénie Traoré New York City Actif 133 / 127 40% 1 04.12.2027 -
Cheikh Sabaly Vancouver Whitecaps Actif 134 / 123 40% 1 02.12.2027 -
Telasco Segovia Inter Miami CF Actif 146 / 143 40% 1 30.11.2027 -
Alejo Dramisino Atlanta Actif 116 / 121 40% 1 29.11.2027 -
Nuno Moreira Vasco da Gama Actif 139 / 134 40% 1 29.11.2027 -
Cesar Rubio Envigado Actif 105 / 108 40% 2 26.11.2027 -
Daniel Idoko Ikorodu City Actif 112 / 84 40% 3 26.11.2027 -
Aarón Molinas Defensa y Justicia Actif 132 / 123 40% 1 24.11.2027 -
Joel Ezra Enyimba Actif 106 / 102 40% 1 24.11.2027 -
Onyeuche Ujunwa Ikorodu City Actif 107 / 96 40% 1 21.11.2027 -
Mohamed Moussa Koïta Mathare United Actif 98 / 101 40% 1 18.11.2027 -
Victor Hernandez Santa Fe Actif 118 / 130 40% 3 16.11.2027 -
Emerson Batalla Atletico Bucaramanga Actif 128 / 122 40% 2 16.11.2027 -
Victor Lind Hammarby Actif 140 / 123 40% 2 14.11.2027 -
Patricio Moyano Defensores Actif 118 / 113 40% 1 14.11.2027 -
David Damboama El-Kanemi Warriors Actif 70 / 77 40% 1 13.11.2027 -
Alexis Cuello San Lorenzo Actif 128 / 119 40% 1 12.11.2027 -
Lucas Assadi AIK Actif 117 / 132 40% 1 12.11.2027 -
Juan Bisanz Huracán Actif 120 / 126 40% 2 11.11.2027 -
Franco Vedoya Central Norte Actif 123 / 107 40% 2 08.11.2027 -
Nicolás Retamar Ferro Carril Oeste Actif 125 / 118 40% 1 07.11.2027 -
Ramón González Almirante Brown Actif 122 / 119 40% 1 02.11.2027 -
Santiago Rodríguez Columbus Crew Actif 138 / 129 40% 1 02.11.2027 -
Caio Vidal Deportivo Pereira Actif 143 / 130 40% 3 01.11.2027 -
Talles Magno New York City Actif 119 / 126 40% 1 30.10.2027 -
Pablo Cardona Cortulua Actif 109 / 109 40% 1 29.10.2027 -
Edwin Mosquera Santa Fe Actif 115 / 119 40% 1 27.10.2027 -
Augusto Berrondo Tristán Suárez Actif 118 / 105 40% 1 26.10.2027 -
Daniel Barrea Godoy Cruz Actif 115 / 125 40% 1 21.10.2027 -
Alejandro Piedrahita Deportivo Pereira Actif 129 / 121 40% 1 21.10.2027 -
Antony Portland Timbers Actif 151 / 119 40% 1 17.10.2027 -
Louis Leroux FC Nantes Actif 126 / 143 40% 1 17.10.2027 -
Olaniyi Saheed Kwara United Actif 74 / 102 40% 1 14.10.2027 -
Felipe Faúndez O'Higgins Actif 99 / 101 40% 1 14.10.2027 -
Francisco Machis Llaneros Actif 79 / 87 40% 1 12.10.2027 -
Johan Martínez Deportivo Cali Actif 116 / 120 40% 1 07.10.2027 -
Matías Rosales Sarmiento Actif 119 / 118 40% 1 06.10.2027 -
Almugera Kabar Borussia Dortmund Actif 126 / 130 40% 1 05.10.2027 -
Óscar Hinojosa Metropolitanos Actif 81 / 80 40% 1 13.09.2027 -
Ivan Borges Defensores Actif 89 / 97 40% 1 10.09.2027 -
Gideon Manaseh Ikorodu City Actif 79 / 93 40% 1 10.09.2027 -
Mpho Khethang FC Diarra Actif 82 / 88 40% 1 07.09.2027 -
Eliás Montiel Borussia Dortmund Actif 137 / 141 40% 1 16.08.2027 -
Miguel Figueiredo Benfica Actif 119 / 120 40% 1 05.07.2027 -
Isaiah Jones Luton Town Actif 127 / 123 40% 5 29.05.2027 -
Daniel Kyerewaa Reading Actif 109 / 106 40% 3 29.05.2027 -
Nathan Broadhead Wrexham Actif 132 / 131 40% 1 28.05.2027 -
Derensili Sanches Fernandes Huddersfield Town Actif 132 / 123 40% 4 27.05.2027 -
Azor Matusiwa Ipswich Town Actif 126 / 142 40% 1 26.05.2027 -
Chemsdine Talbi Sunderland Actif 132 / 140 40% 8 25.05.2027 -
Sheyi Ojo Crewe Alexandra Actif 118 / 117 40% 1 25.05.2027 -
Malik Mothersille Stockport County Actif 123 / 108 40% 1 24.05.2027 -
Jack Rudoni Coventry City Actif 127 / 128 40% 4 23.05.2027 -
Nordi Mukiele Sunderland Actif 138 / 151 40% 3 21.05.2027 -
Mohamed-Ali Cho Hull City Actif 141 / 136 40% 1 20.05.2027 -
Zian Flemming Ipswich Town Actif 124 / 139 40% 1 20.05.2027 -
Matt O'Riley Brighton Actif 158 / 153 40% 2 19.05.2027 Plus d'infos
Joe Gelhardt Hull City Actif 133 / 132 40% 3 17.05.2027 -
Cian Ashford Cardiff City Actif 120 / 123 40% 2 17.05.2027 -
Darragh Burns Grimsby Town Actif 97 / 102 40% 1 16.05.2027 -
Finn Azaz Southampton Actif 132 / 125 40% 3 13.05.2027 -
Alex Scott Bournemouth Actif 162 / 147 40% 1 11.05.2027 -
Oswin Appollis Orlando Pirates Actif 123 / 111 40% 2 05.05.2027 -
Tyrese Campbell Sheffield United Actif 123 / 120 40% 1 05.05.2027 -
Marcus Edwards Burnley Actif 128 / 143 40% 2 04.05.2027 -
Sorba Thomas Stoke City Actif 135 / 122 40% 2 04.05.2027 -
Ilias Sebaoui Sint-Truiden Actif 116 / 122 40% 6 29.04.2027 -
Ilyas Ansah Hull City Actif 130 / 127 40% 1 28.04.2027 -
Brooke Norton-Cuffy Hull City Actif 132 / 141 40% 2 26.04.2027 -
Xaver Schlager Nottingham Forest Actif 147 / 151 40% 1 26.04.2027 -
Juan Bezerra Zamalek Actif 128 / 111 40% 2 25.04.2027 -
Malick Fofana Sunderland Actif 151 / 140 40% 1 25.04.2027 -
Justo Giani Umraniyespor Actif 117 / 129 40% 1 24.04.2027 -
Bobby Clark Derby County Actif 126 / 119 40% 1 21.04.2027 -
Jackson Muleka Konyaspor Actif 120 / 130 40% 1 18.04.2027 -
Milan van Ewijk Coventry City Actif 135 / 133 40% 3 12.04.2027 -
Giacomo Raspadori Atalanta Actif 150 / 143 40% 2 09.04.2027 -
Mitchel Bakker Modena Actif 119 / 133 40% 4 08.04.2027 -
Savinho Tottenham Actif 148 / 164 40% 4 07.04.2027 -
Carlos Forbs Club Brugge Actif 131 / 139 40% 4 05.04.2027 -
Marcelo Allende Mamelodi Sundowns Actif 137 / 119 40% 2 28.03.2027 -
Bongani Zungu Ajax Cape Town Actif 115 / 114 40% 1 26.03.2027 -
Amine Adli Bournemouth Actif 146 / 136 40% 1 24.03.2027 -
Kenny Tete Fulham Actif 137 / 145 40% 3 20.03.2027 -
Mario Stroeykens Anderlecht Actif 137 / 123 40% 5 20.03.2027 -
Jakub Moder Burnley Actif 143 / 141 40% 2 16.03.2027 -
Ilay Camara Anderlecht Actif 129 / 139 40% 1 11.03.2027 -
Bernard Tekpetey Ludogorets Actif 143 / 133 40% 1 09.03.2027 -
Thierry Ambrose KV Kortrijk Actif 117 / 129 40% 3 07.03.2027 -
Tristan Degreef Anderlecht Actif 130 / 131 40% 3 04.03.2027 -
Bradley Zwane SuperSport United Actif 109 / 130 40% 1 27.02.2027 -
Ianis Hagi Alanyaspor Actif 139 / 112 40% 1 16.02.2027 -
Marley Aké Zulte Waregem Actif 122 / 124 40% 2 09.02.2027 -
Ryotaro Ito Sint-Truiden Actif 135 / 118 40% 2 06.02.2027 -
Daan Heymans Racing Genk Actif 118 / 126 40% 2 21.01.2027 -
Itumeleng Grobler Free State Stars Actif 88 / 110 40% 3 02.01.2027 -
Maxim Deman Waasland-Beveren Actif 94 / 110 40% 1 02.01.2027 -
Sampson Dweh Mallorca Actif 133 / 134 66% 1 01.01.2027 Approuver
Malick Mbaye Zulte Waregem Actif 102 / 124 44% 1 01.01.2027 -
Kevin Fulham Actif 153 / 150 40% 1 30.12.2026 -
Patrick Maswanganyi Orlando Pirates Actif 122 / 114 40% 1 29.12.2026 -
Lukas Jensen Millwall Actif 128 / 109 40% 1 29.12.2026 -
Andreas Jungdal Westerlo Actif 131 / 119 40% 1 29.12.2026 -
Jordan Amissah Burton Albion Actif 94 / 99 40% 2 28.12.2026 -
Florentino Luís Ipswich Town Actif 133 / 138 40% 1 27.12.2026 -
Reda Khadra Qarabag Actif 128 / 140 40% 3 25.12.2026 -
Ilyes Najim Waasland-Beveren Actif 131 / 124 40% 1 24.12.2026 -
Richard Ludha MFK Skalica Actif 102 / 102 40% 1 23.12.2026 -
Brent Gabriel Zulte Waregem Actif 105 / 117 40% 2 21.12.2026 -
Alkalifa Coulibaly Onze Createurs Actif 79 / 90 40% 2 18.12.2026 -
Abdelkahar Kadri KAA Gent Actif 125 / 127 40% 1 13.12.2026 -
N'Golo Traoré Stade Malien Actif 108 / 86 40% 1 12.12.2026 -
Jeppe Erenbjerg Racing Genk Actif 106 / 125 40% 1 10.12.2026 -
Gessime Yassine RC Strasbourg Actif 115 / 126 40% 1 08.12.2026 -
Elliot Anderson Manchester City Actif 154 / 150 40% 1 04.12.2026 -
Kyriani Sabbe Club Brugge Actif 104 / 123 40% 2 28.11.2026 -
Sylvester Jasper Standard Liege Actif 105 / 122 40% 1 27.11.2026 -
Marcelin Mbahbi Cotonsport Garoua Actif 100 / 107 40% 1 26.11.2026 -
Vincent Müller Aalborg Actif 97 / 95 40% 1 20.11.2026 -
Josh Keeley Luton Town Actif 136 / 131 40% 1 20.11.2026 -
Bogdan Ovsyannikov Orenburg Actif 90 / 98 40% 1 15.11.2026 -
Lucas Lund Viborg Actif 119 / 105 40% 1 15.11.2026 -
Ryan Thomas Zwolle Actif 104 / 118 40% 1 13.11.2026 -
Maksim Kireev KV Mechelen Actif 131 / 128 40% 1 09.11.2026 -
Jan Virgili Club Brugge Actif 138 / 141 40% 1 08.11.2026 -
Antoine Colassin Charleroi Actif 132 / 114 40% 1 07.11.2026 -
Andrei Vlad Petrolul Actif 135 / 115 40% 1 07.11.2026 -
Marcelino Moreno Lanús Actif 133 / 131 40% 1 04.11.2026 -
Facundo Mura Inter Miami CF Actif 114 / 141 40% 2 30.10.2026 -
Freddie Potts Club Brugge Actif 127 / 136 40% 1 30.10.2026 -
Alejandro Pozo Standard Liege Actif 134 / 114 40% 1 22.10.2026 -
Welington Southampton Actif 118 / 132 40% 1 22.10.2026 -
Jayden Bogle Leeds United Actif 139 / 135 40% 1 21.10.2026 -
Ibrahim Karamoko Standard Liege Actif 131 / 124 40% 1 19.10.2026 -
Matisse Samoise KAA Gent Actif 111 / 125 40% 1 19.10.2026 -
Mardochée Nzita Charleroi Actif 112 / 118 40% 1 17.10.2026 -
Matteo Dams Club Brugge Actif 120 / 119 40% 2 16.10.2026 -
Joel Ordóñez Club Brugge Actif 124 / 135 40% 1 16.10.2026 -
Rubens Dinamo Moscow Actif 132 / 126 40% 1 12.10.2026 -
Anton Tanghe Zulte Waregem Actif 128 / 103 40% 1 12.10.2026 -
Olivier Aertssen Zwolle Actif 119 / 104 40% 1 09.10.2026 -
Junior Onana Ludogorets Actif 102 / 117 40% 1 09.10.2026 -
Yaimar Medina Racing Genk Actif 108 / 131 40% 1 07.10.2026 -
Tobias Sommer Zwolle Actif 120 / 111 40% 1 06.10.2026 -
David Brekalo Orlando City Actif 150 / 135 40% 1 06.10.2026 -
Tiago Araújo KAA Gent Actif 131 / 130 40% 1 10.09.2026 -
Igor Jesus Los Angeles Football Club Actif 95 / 125 40% 1 08.09.2026 -
Tomás Alarcón Colo-Colo Actif 109 / 114 40% 1 08.09.2026 -
Martín Ojeda Orlando City Actif 152 / 124 40% 1 25.08.2026 -
Dylan Dassy Waasland-Beveren Actif 107 / 88 44% 1 24.08.2026 -
Jelle Vossen Actif 120 / 119 44% 1 03.08.2026 -
Madi Monamay PSV Actif 88 / 108 40% 1 02.08.2026 -